sensor_id;sensor_type;location;lat;lon;timestamp;P1;durP1;ratioP1;P2;durP2;ratioP2
51636;SDS011;37713;53.254;6.460;2022-10-16T00:01:58;8.95;;;2.20;;
51636;SDS011;37713;53.254;6.460;2022-10-16T00:04:23;9.15;;;2.25;;
51636;SDS011;37713;53.254;6.460;2022-10-16T00:06:49;8.73;;;2.33;;
51636;SDS011;37713;53.254;6.460;2022-10-16T00:09:15;9.93;;;2.35;;
51636;SDS011;37713;53.254;6.460;2022-10-16T00:11:41;12.50;;;3.00;;
51636;SDS011;37713;53.254;6.460;2022-10-16T00:14:11;10.70;;;2.00;;
51636;SDS011;37713;53.254;6.460;2022-10-16T00:16:38;8.95;;;1.80;;
51636;SDS011;37713;53.254;6.460;2022-10-16T00:19:05;8.85;;;2.20;;
51636;SDS011;37713;53.254;6.460;2022-10-16T00:21:31;8.85;;;1.70;;
51636;SDS011;37713;53.254;6.460;2022-10-16T00:23:58;9.43;;;2.08;;
51636;SDS011;37713;53.254;6.460;2022-10-16T00:26:26;6.97;;;1.70;;
51636;SDS011;37713;53.254;6.460;2022-10-16T00:28:53;10.52;;;2.17;;
51636;SDS011;37713;53.254;6.460;2022-10-16T00:31:20;8.55;;;1.83;;
51636;SDS011;37713;53.254;6.460;2022-10-16T00:33:47;7.38;;;1.80;;
51636;SDS011;37713;53.254;6.460;2022-10-16T00:36:14;12.25;;;1.75;;
51636;SDS011;37713;53.254;6.460;2022-10-16T00:38:41;10.23;;;1.60;;
51636;SDS011;37713;53.254;6.460;2022-10-16T00:41:09;7.55;;;1.90;;
51636;SDS011;37713;53.254;6.460;2022-10-16T00:46:05;5.63;;;1.50;;
51636;SDS011;37713;53.254;6.460;2022-10-16T00:48:44;9.85;;;2.15;;
51636;SDS011;37713;53.254;6.460;2022-10-16T00:51:18;7.65;;;1.90;;
51636;SDS011;37713;53.254;6.460;2022-10-16T00:53:47;10.95;;;1.88;;
51636;SDS011;37713;53.254;6.460;2022-10-16T00:56:14;12.10;;;2.00;;
51636;SDS011;37713;53.254;6.460;2022-10-16T00:58:40;11.57;;;1.95;;
51636;SDS011;37713;53.254;6.460;2022-10-16T01:01:05;7.20;;;2.10;;
51636;SDS011;37713;53.254;6.460;2022-10-16T01:03:33;6.72;;;1.60;;
51636;SDS011;37713;53.254;6.460;2022-10-16T01:09:34;6.50;;;1.77;;
51636;SDS011;37713;53.254;6.460;2022-10-16T01:14:48;5.75;;;1.73;;
51636;SDS011;37713;53.254;6.460;2022-10-16T01:31:31;9.52;;;1.77;;
51636;SDS011;37713;53.254;6.460;2022-10-16T01:34:05;8.23;;;1.70;;
51636;SDS011;37713;53.254;6.460;2022-10-16T01:36:40;5.82;;;1.73;;
51636;SDS011;37713;53.254;6.460;2022-10-16T01:39:10;6.15;;;1.45;;
51636;SDS011;37713;53.254;6.460;2022-10-16T01:41:38;6.72;;;1.30;;
51636;SDS011;37713;53.254;6.460;2022-10-16T01:44:10;9.45;;;1.55;;
51636;SDS011;37713;53.254;6.460;2022-10-16T01:46:44;11.00;;;1.90;;
51636;SDS011;37713;53.254;6.460;2022-10-16T01:49:13;11.23;;;3.00;;
51636;SDS011;37713;53.254;6.460;2022-10-16T01:51:41;11.63;;;1.60;;
51636;SDS011;37713;53.254;6.460;2022-10-16T01:54:10;7.40;;;1.75;;
51636;SDS011;37713;53.254;6.460;2022-10-16T01:56:38;9.63;;;1.55;;
51636;SDS011;37713;53.254;6.460;2022-10-16T01:59:06;8.52;;;1.55;;
51636;SDS011;37713;53.254;6.460;2022-10-16T02:01:36;6.88;;;1.75;;
51636;SDS011;37713;53.254;6.460;2022-10-16T02:04:15;6.75;;;1.77;;
51636;SDS011;37713;53.254;6.460;2022-10-16T02:06:42;8.48;;;2.00;;
51636;SDS011;37713;53.254;6.460;2022-10-16T02:09:08;7.15;;;1.80;;
51636;SDS011;37713;53.254;6.460;2022-10-16T02:11:34;8.77;;;2.10;;
51636;SDS011;37713;53.254;6.460;2022-10-16T02:14:01;6.72;;;1.88;;
51636;SDS011;37713;53.254;6.460;2022-10-16T02:16:38;8.35;;;1.77;;
51636;SDS011;37713;53.254;6.460;2022-10-16T02:19:08;6.07;;;1.83;;
51636;SDS011;37713;53.254;6.460;2022-10-16T02:24:06;10.27;;;2.67;;
51636;SDS011;37713;53.254;6.460;2022-10-16T02:29:36;14.05;;;1.95;;
51636;SDS011;37713;53.254;6.460;2022-10-16T02:32:06;11.73;;;2.70;;
51636;SDS011;37713;53.254;6.460;2022-10-16T02:34:35;5.97;;;1.80;;
51636;SDS011;37713;53.254;6.460;2022-10-16T02:37:03;11.82;;;2.75;;
51636;SDS011;37713;53.254;6.460;2022-10-16T02:39:30;6.10;;;2.13;;
51636;SDS011;37713;53.254;6.460;2022-10-16T02:41:56;4.43;;;1.85;;
51636;SDS011;37713;53.254;6.460;2022-10-16T02:44:22;6.13;;;1.80;;
51636;SDS011;37713;53.254;6.460;2022-10-16T02:46:48;5.10;;;1.55;;
51636;SDS011;37713;53.254;6.460;2022-10-16T02:49:13;10.98;;;2.22;;
51636;SDS011;37713;53.254;6.460;2022-10-16T02:51:39;7.18;;;1.95;;
51636;SDS011;37713;53.254;6.460;2022-10-16T02:54:05;11.23;;;1.95;;
51636;SDS011;37713;53.254;6.460;2022-10-16T02:56:30;8.48;;;1.88;;
51636;SDS011;37713;53.254;6.460;2022-10-16T02:58:56;5.38;;;1.75;;
51636;SDS011;37713;53.254;6.460;2022-10-16T03:01:22;7.13;;;2.08;;
51636;SDS011;37713;53.254;6.460;2022-10-16T03:03:48;6.50;;;1.80;;
51636;SDS011;37713;53.254;6.460;2022-10-16T03:06:14;9.07;;;1.98;;
51636;SDS011;37713;53.254;6.460;2022-10-16T03:08:40;4.45;;;1.75;;
51636;SDS011;37713;53.254;6.460;2022-10-16T03:11:06;5.65;;;1.60;;
51636;SDS011;37713;53.254;6.460;2022-10-16T03:13:32;8.25;;;1.83;;
51636;SDS011;37713;53.254;6.460;2022-10-16T03:15:57;5.47;;;1.85;;
51636;SDS011;37713;53.254;6.460;2022-10-16T03:18:23;9.93;;;2.20;;
51636;SDS011;37713;53.254;6.460;2022-10-16T03:20:49;8.10;;;2.17;;
51636;SDS011;37713;53.254;6.460;2022-10-16T03:23:14;5.88;;;1.95;;
51636;SDS011;37713;53.254;6.460;2022-10-16T03:25:40;5.47;;;1.55;;
51636;SDS011;37713;53.254;6.460;2022-10-16T03:28:06;4.40;;;1.52;;
51636;SDS011;37713;53.254;6.460;2022-10-16T03:30:32;5.72;;;1.92;;
51636;SDS011;37713;53.254;6.460;2022-10-16T03:32:58;4.75;;;2.28;;
51636;SDS011;37713;53.254;6.460;2022-10-16T03:35:23;4.75;;;1.58;;
51636;SDS011;37713;53.254;6.460;2022-10-16T03:37:50;7.00;;;2.15;;
51636;SDS011;37713;53.254;6.460;2022-10-16T03:40:16;5.05;;;1.90;;
51636;SDS011;37713;53.254;6.460;2022-10-16T03:42:42;7.25;;;1.95;;
51636;SDS011;37713;53.254;6.460;2022-10-16T03:45:08;5.03;;;1.98;;
51636;SDS011;37713;53.254;6.460;2022-10-16T03:47:35;4.25;;;1.73;;
51636;SDS011;37713;53.254;6.460;2022-10-16T03:50:00;8.05;;;2.03;;
51636;SDS011;37713;53.254;6.460;2022-10-16T03:52:27;7.32;;;2.00;;
51636;SDS011;37713;53.254;6.460;2022-10-16T03:54:52;13.20;;;2.65;;
51636;SDS011;37713;53.254;6.460;2022-10-16T03:57:18;6.22;;;1.58;;
51636;SDS011;37713;53.254;6.460;2022-10-16T03:59:45;5.45;;;1.80;;
51636;SDS011;37713;53.254;6.460;2022-10-16T04:02:11;4.85;;;1.45;;
51636;SDS011;37713;53.254;6.460;2022-10-16T04:04:37;7.03;;;2.05;;
51636;SDS011;37713;53.254;6.460;2022-10-16T04:07:03;7.10;;;1.92;;
51636;SDS011;37713;53.254;6.460;2022-10-16T04:09:29;8.55;;;1.70;;
51636;SDS011;37713;53.254;6.460;2022-10-16T04:11:54;5.88;;;2.00;;
51636;SDS011;37713;53.254;6.460;2022-10-16T04:14:20;4.40;;;1.48;;
51636;SDS011;37713;53.254;6.460;2022-10-16T04:16:46;11.35;;;1.90;;
51636;SDS011;37713;53.254;6.460;2022-10-16T04:19:12;8.18;;;1.80;;
51636;SDS011;37713;53.254;6.460;2022-10-16T04:21:38;7.07;;;1.85;;
51636;SDS011;37713;53.254;6.460;2022-10-16T04:24:04;7.15;;;1.92;;
51636;SDS011;37713;53.254;6.460;2022-10-16T04:26:29;6.15;;;1.80;;
51636;SDS011;37713;53.254;6.460;2022-10-16T04:28:55;7.63;;;1.90;;
51636;SDS011;37713;53.254;6.460;2022-10-16T04:31:21;7.13;;;2.10;;
51636;SDS011;37713;53.254;6.460;2022-10-16T04:33:47;5.70;;;1.90;;
51636;SDS011;37713;53.254;6.460;2022-10-16T04:36:13;7.53;;;1.80;;
51636;SDS011;37713;53.254;6.460;2022-10-16T04:38:39;4.22;;;1.75;;
51636;SDS011;37713;53.254;6.460;2022-10-16T04:41:06;6.75;;;1.70;;
51636;SDS011;37713;53.254;6.460;2022-10-16T04:43:32;10.52;;;1.95;;
51636;SDS011;37713;53.254;6.460;2022-10-16T04:45:59;3.75;;;1.70;;
51636;SDS011;37713;53.254;6.460;2022-10-16T04:48:25;6.75;;;2.08;;
51636;SDS011;37713;53.254;6.460;2022-10-16T04:50:50;6.97;;;1.95;;
51636;SDS011;37713;53.254;6.460;2022-10-16T04:53:16;5.97;;;2.05;;
51636;SDS011;37713;53.254;6.460;2022-10-16T04:55:42;8.77;;;2.40;;
51636;SDS011;37713;53.254;6.460;2022-10-16T04:58:08;8.10;;;2.00;;
51636;SDS011;37713;53.254;6.460;2022-10-16T05:00:34;8.55;;;2.00;;
51636;SDS011;37713;53.254;6.460;2022-10-16T05:03:00;7.88;;;1.80;;
51636;SDS011;37713;53.254;6.460;2022-10-16T05:05:30;4.35;;;1.85;;
51636;SDS011;37713;53.254;6.460;2022-10-16T05:07:56;8.95;;;2.00;;
51636;SDS011;37713;53.254;6.460;2022-10-16T05:10:22;8.65;;;2.47;;
51636;SDS011;37713;53.254;6.460;2022-10-16T05:12:48;9.40;;;2.30;;
51636;SDS011;37713;53.254;6.460;2022-10-16T05:15:14;10.35;;;1.85;;
51636;SDS011;37713;53.254;6.460;2022-10-16T05:17:39;5.40;;;1.92;;
51636;SDS011;37713;53.254;6.460;2022-10-16T05:20:05;6.45;;;1.92;;
51636;SDS011;37713;53.254;6.460;2022-10-16T05:22:31;8.52;;;1.90;;
51636;SDS011;37713;53.254;6.460;2022-10-16T05:24:57;7.53;;;2.08;;
51636;SDS011;37713;53.254;6.460;2022-10-16T05:27:23;8.57;;;2.25;;
51636;SDS011;37713;53.254;6.460;2022-10-16T05:29:49;9.18;;;2.30;;
51636;SDS011;37713;53.254;6.460;2022-10-16T05:32:15;10.32;;;2.40;;
51636;SDS011;37713;53.254;6.460;2022-10-16T05:34:42;7.57;;;2.22;;
51636;SDS011;37713;53.254;6.460;2022-10-16T05:37:09;7.97;;;2.65;;
51636;SDS011;37713;53.254;6.460;2022-10-16T05:39:36;6.63;;;2.17;;
51636;SDS011;37713;53.254;6.460;2022-10-16T05:42:03;11.82;;;2.53;;
51636;SDS011;37713;53.254;6.460;2022-10-16T05:44:29;9.48;;;2.75;;
51636;SDS011;37713;53.254;6.460;2022-10-16T05:46:55;8.23;;;2.50;;
51636;SDS011;37713;53.254;6.460;2022-10-16T05:49:21;7.82;;;2.22;;
51636;SDS011;37713;53.254;6.460;2022-10-16T05:51:46;9.80;;;2.40;;
51636;SDS011;37713;53.254;6.460;2022-10-16T05:54:12;8.35;;;2.15;;
51636;SDS011;37713;53.254;6.460;2022-10-16T05:56:38;7.75;;;2.35;;
51636;SDS011;37713;53.254;6.460;2022-10-16T05:59:04;11.38;;;2.55;;
51636;SDS011;37713;53.254;6.460;2022-10-16T06:01:30;19.25;;;2.70;;
51636;SDS011;37713;53.254;6.460;2022-10-16T06:03:56;13.02;;;2.50;;
51636;SDS011;37713;53.254;6.460;2022-10-16T06:06:23;7.35;;;2.65;;
51636;SDS011;37713;53.254;6.460;2022-10-16T06:08:51;9.05;;;2.40;;
51636;SDS011;37713;53.254;6.460;2022-10-16T06:11:19;5.22;;;2.20;;
51636;SDS011;37713;53.254;6.460;2022-10-16T06:13:50;7.18;;;2.30;;
51636;SDS011;37713;53.254;6.460;2022-10-16T06:16:17;9.05;;;2.78;;
51636;SDS011;37713;53.254;6.460;2022-10-16T06:18:43;7.93;;;2.30;;
51636;SDS011;37713;53.254;6.460;2022-10-16T06:21:14;8.95;;;2.80;;
51636;SDS011;37713;53.254;6.460;2022-10-16T06:23:42;8.95;;;2.85;;
51636;SDS011;37713;53.254;6.460;2022-10-16T06:26:09;7.70;;;2.75;;
51636;SDS011;37713;53.254;6.460;2022-10-16T06:28:37;13.18;;;2.95;;
51636;SDS011;37713;53.254;6.460;2022-10-16T06:31:04;8.13;;;2.50;;
51636;SDS011;37713;53.254;6.460;2022-10-16T06:33:31;8.00;;;2.90;;
51636;SDS011;37713;53.254;6.460;2022-10-16T06:36:01;7.80;;;2.75;;
51636;SDS011;37713;53.254;6.460;2022-10-16T06:38:31;8.77;;;2.95;;
51636;SDS011;37713;53.254;6.460;2022-10-16T06:40:57;6.70;;;2.40;;
51636;SDS011;37713;53.254;6.460;2022-10-16T06:43:23;8.70;;;3.20;;
51636;SDS011;37713;53.254;6.460;2022-10-16T06:45:50;6.93;;;2.60;;
51636;SDS011;37713;53.254;6.460;2022-10-16T06:48:17;9.40;;;2.60;;
51636;SDS011;37713;53.254;6.460;2022-10-16T06:50:43;7.20;;;2.60;;
51636;SDS011;37713;53.254;6.460;2022-10-16T06:53:09;8.35;;;3.03;;
51636;SDS011;37713;53.254;6.460;2022-10-16T06:55:34;7.57;;;2.60;;
51636;SDS011;37713;53.254;6.460;2022-10-16T06:58:00;7.20;;;2.75;;
51636;SDS011;37713;53.254;6.460;2022-10-16T07:00:26;9.50;;;2.47;;
51636;SDS011;37713;53.254;6.460;2022-10-16T07:02:51;7.22;;;2.83;;
51636;SDS011;37713;53.254;6.460;2022-10-16T07:05:17;8.07;;;2.22;;
51636;SDS011;37713;53.254;6.460;2022-10-16T07:07:43;8.55;;;2.60;;
51636;SDS011;37713;53.254;6.460;2022-10-16T07:10:08;6.03;;;2.45;;
51636;SDS011;37713;53.254;6.460;2022-10-16T07:12:34;9.43;;;2.35;;
51636;SDS011;37713;53.254;6.460;2022-10-16T07:15:00;6.15;;;2.20;;
51636;SDS011;37713;53.254;6.460;2022-10-16T07:17:25;9.57;;;2.53;;
51636;SDS011;37713;53.254;6.460;2022-10-16T07:19:51;7.55;;;2.35;;
51636;SDS011;37713;53.254;6.460;2022-10-16T07:22:18;10.77;;;2.53;;
51636;SDS011;37713;53.254;6.460;2022-10-16T07:24:44;9.63;;;2.28;;
51636;SDS011;37713;53.254;6.460;2022-10-16T07:27:09;7.10;;;2.30;;
51636;SDS011;37713;53.254;6.460;2022-10-16T07:29:35;8.75;;;1.85;;
51636;SDS011;37713;53.254;6.460;2022-10-16T07:32:01;11.18;;;2.28;;
51636;SDS011;37713;53.254;6.460;2022-10-16T07:34:27;6.10;;;2.10;;
51636;SDS011;37713;53.254;6.460;2022-10-16T07:36:53;6.20;;;1.50;;
51636;SDS011;37713;53.254;6.460;2022-10-16T07:39:19;8.30;;;1.83;;
51636;SDS011;37713;53.254;6.460;2022-10-16T07:41:44;7.10;;;1.90;;
51636;SDS011;37713;53.254;6.460;2022-10-16T07:44:10;7.60;;;1.88;;
51636;SDS011;37713;53.254;6.460;2022-10-16T07:46:36;8.85;;;2.10;;
51636;SDS011;37713;53.254;6.460;2022-10-16T07:49:02;8.10;;;2.20;;
51636;SDS011;37713;53.254;6.460;2022-10-16T07:51:28;6.03;;;2.30;;
51636;SDS011;37713;53.254;6.460;2022-10-16T07:53:54;7.10;;;2.10;;
51636;SDS011;37713;53.254;6.460;2022-10-16T07:56:20;5.28;;;1.92;;
51636;SDS011;37713;53.254;6.460;2022-10-16T07:58:47;8.27;;;2.50;;
51636;SDS011;37713;53.254;6.460;2022-10-16T08:01:15;6.30;;;2.15;;
51636;SDS011;37713;53.254;6.460;2022-10-16T08:03:42;6.82;;;2.30;;
51636;SDS011;37713;53.254;6.460;2022-10-16T08:06:13;5.93;;;2.03;;
51636;SDS011;37713;53.254;6.460;2022-10-16T08:08:39;11.15;;;2.55;;
51636;SDS011;37713;53.254;6.460;2022-10-16T08:11:05;6.78;;;2.53;;
51636;SDS011;37713;53.254;6.460;2022-10-16T08:13:31;7.03;;;2.55;;
51636;SDS011;37713;53.254;6.460;2022-10-16T08:15:57;7.72;;;2.85;;
51636;SDS011;37713;53.254;6.460;2022-10-16T08:18:23;6.50;;;2.58;;
51636;SDS011;37713;53.254;6.460;2022-10-16T08:20:54;6.25;;;2.70;;
51636;SDS011;37713;53.254;6.460;2022-10-16T08:23:24;6.28;;;2.33;;
51636;SDS011;37713;53.254;6.460;2022-10-16T08:25:51;7.32;;;3.00;;
51636;SDS011;37713;53.254;6.460;2022-10-16T08:28:18;8.98;;;2.70;;
51636;SDS011;37713;53.254;6.460;2022-10-16T08:30:44;5.80;;;2.42;;
51636;SDS011;37713;53.254;6.460;2022-10-16T08:33:10;7.15;;;2.53;;
51636;SDS011;37713;53.254;6.460;2022-10-16T08:35:36;8.00;;;2.55;;
51636;SDS011;37713;53.254;6.460;2022-10-16T08:38:03;6.10;;;2.28;;
51636;SDS011;37713;53.254;6.460;2022-10-16T08:40:30;6.75;;;2.25;;
51636;SDS011;37713;53.254;6.460;2022-10-16T08:51:12;8.68;;;1.98;;
51636;SDS011;37713;53.254;6.460;2022-10-16T08:54:03;5.63;;;1.88;;
51636;SDS011;37713;53.254;6.460;2022-10-16T08:56:38;6.35;;;1.85;;
51636;SDS011;37713;53.254;6.460;2022-10-16T08:59:04;6.60;;;2.03;;
51636;SDS011;37713;53.254;6.460;2022-10-16T09:01:37;9.63;;;2.17;;
51636;SDS011;37713;53.254;6.460;2022-10-16T09:06:58;8.82;;;2.17;;
51636;SDS011;37713;53.254;6.460;2022-10-16T09:22:37;9.95;;;2.67;;
51636;SDS011;37713;53.254;6.460;2022-10-16T09:25:10;9.15;;;2.00;;
51636;SDS011;37713;53.254;6.460;2022-10-16T09:27:45;10.85;;;2.03;;
51636;SDS011;37713;53.254;6.460;2022-10-16T09:30:17;8.45;;;1.90;;
51636;SDS011;37713;53.254;6.460;2022-10-16T09:32:45;7.93;;;2.47;;
51636;SDS011;37713;53.254;6.460;2022-10-16T09:35:16;8.80;;;1.98;;
51636;SDS011;37713;53.254;6.460;2022-10-16T09:37:48;10.02;;;1.73;;
51636;SDS011;37713;53.254;6.460;2022-10-16T09:40:30;9.35;;;2.33;;
51636;SDS011;37713;53.254;6.460;2022-10-16T09:48:51;12.63;;;2.20;;
51636;SDS011;37713;53.254;6.460;2022-10-16T09:53:57;12.68;;;2.15;;
51636;SDS011;37713;53.254;6.460;2022-10-16T09:56:29;10.75;;;2.03;;
51636;SDS011;37713;53.254;6.460;2022-10-16T09:58:58;8.93;;;1.90;;
51636;SDS011;37713;53.254;6.460;2022-10-16T10:01:28;11.32;;;2.10;;
51636;SDS011;37713;53.254;6.460;2022-10-16T10:04:00;16.58;;;2.08;;
51636;SDS011;37713;53.254;6.460;2022-10-16T10:06:49;9.70;;;2.00;;
51636;SDS011;37713;53.254;6.460;2022-10-16T10:09:21;10.50;;;2.35;;
51636;SDS011;37713;53.254;6.460;2022-10-16T10:11:49;17.23;;;1.73;;
51636;SDS011;37713;53.254;6.460;2022-10-16T10:17:06;12.50;;;2.22;;
51636;SDS011;37713;53.254;6.460;2022-10-16T10:19:40;10.40;;;2.72;;
51636;SDS011;37713;53.254;6.460;2022-10-16T10:22:25;9.73;;;1.95;;
51636;SDS011;37713;53.254;6.460;2022-10-16T10:25:18;10.95;;;2.22;;
51636;SDS011;37713;53.254;6.460;2022-10-16T10:38:27;13.95;;;3.03;;
51636;SDS011;37713;53.254;6.460;2022-10-16T10:46:39;12.45;;;2.33;;
51636;SDS011;37713;53.254;6.460;2022-10-16T10:49:21;9.88;;;1.80;;
51636;SDS011;37713;53.254;6.460;2022-10-16T10:52:13;11.70;;;1.67;;
51636;SDS011;37713;53.254;6.460;2022-10-16T10:57:59;11.75;;;2.30;;
51636;SDS011;37713;53.254;6.460;2022-10-16T11:03:35;10.57;;;2.03;;
51636;SDS011;37713;53.254;6.460;2022-10-16T11:06:34;9.18;;;1.80;;
51636;SDS011;37713;53.254;6.460;2022-10-16T11:09:13;10.32;;;1.83;;
51636;SDS011;37713;53.254;6.460;2022-10-16T11:11:44;14.52;;;2.17;;
51636;SDS011;37713;53.254;6.460;2022-10-16T11:14:38;10.05;;;1.90;;
51636;SDS011;37713;53.254;6.460;2022-10-16T11:22:52;11.50;;;2.15;;
51636;SDS011;37713;53.254;6.460;2022-10-16T11:25:31;11.10;;;2.40;;
51636;SDS011;37713;53.254;6.460;2022-10-16T11:30:49;12.02;;;1.98;;
51636;SDS011;37713;53.254;6.460;2022-10-16T11:36:00;11.02;;;1.88;;
51636;SDS011;37713;53.254;6.460;2022-10-16T11:38:52;11.00;;;1.75;;
51636;SDS011;37713;53.254;6.460;2022-10-16T11:44:16;10.75;;;2.00;;
51636;SDS011;37713;53.254;6.460;2022-10-16T11:49:32;11.48;;;1.75;;
51636;SDS011;37713;53.254;6.460;2022-10-16T11:57:20;11.13;;;2.08;;
51636;SDS011;37713;53.254;6.460;2022-10-16T11:59:58;12.07;;;1.95;;
51636;SDS011;37713;53.254;6.460;2022-10-16T12:07:51;12.13;;;1.92;;
51636;SDS011;37713;53.254;6.460;2022-10-16T12:10:40;12.68;;;1.98;;
51636;SDS011;37713;53.254;6.460;2022-10-16T12:16:31;14.45;;;1.80;;
51636;SDS011;37713;53.254;6.460;2022-10-16T12:18:50;10.80;;;1.95;;
51636;SDS011;37713;53.254;6.460;2022-10-16T12:21:41;16.45;;;2.22;;
51636;SDS011;37713;53.254;6.460;2022-10-16T12:24:19;13.32;;;2.05;;
51636;SDS011;37713;53.254;6.460;2022-10-16T12:26:46;11.50;;;1.73;;
51636;SDS011;37713;53.254;6.460;2022-10-16T12:29:56;11.43;;;1.90;;
51636;SDS011;37713;53.254;6.460;2022-10-16T12:32:04;11.60;;;1.70;;
51636;SDS011;37713;53.254;6.460;2022-10-16T12:34:44;11.48;;;1.70;;
51636;SDS011;37713;53.254;6.460;2022-10-16T12:37:20;9.00;;;1.83;;
51636;SDS011;37713;53.254;6.460;2022-10-16T12:39:49;10.02;;;1.52;;
51636;SDS011;37713;53.254;6.460;2022-10-16T12:44:47;10.02;;;1.58;;
51636;SDS011;37713;53.254;6.460;2022-10-16T12:47:23;14.93;;;2.00;;
51636;SDS011;37713;53.254;6.460;2022-10-16T12:50:01;10.05;;;1.35;;
51636;SDS011;37713;53.254;6.460;2022-10-16T12:54:58;9.07;;;1.48;;
51636;SDS011;37713;53.254;6.460;2022-10-16T12:57:34;9.65;;;1.58;;
51636;SDS011;37713;53.254;6.460;2022-10-16T13:08:55;13.25;;;2.45;;
51636;SDS011;37713;53.254;6.460;2022-10-16T13:27:54;12.30;;;1.85;;
51636;SDS011;37713;53.254;6.460;2022-10-16T13:30:23;15.93;;;2.20;;
51636;SDS011;37713;53.254;6.460;2022-10-16T13:35:47;15.10;;;1.80;;
51636;SDS011;37713;53.254;6.460;2022-10-16T13:38:19;11.10;;;1.60;;
51636;SDS011;37713;53.254;6.460;2022-10-16T13:41:00;11.60;;;1.67;;
51636;SDS011;37713;53.254;6.460;2022-10-16T13:43:34;16.33;;;2.45;;
51636;SDS011;37713;53.254;6.460;2022-10-16T13:46:05;14.90;;;2.55;;
51636;SDS011;37713;53.254;6.460;2022-10-16T13:48:38;11.57;;;1.63;;
51636;SDS011;37713;53.254;6.460;2022-10-16T13:53:40;10.07;;;1.52;;
51636;SDS011;37713;53.254;6.460;2022-10-16T13:56:09;10.15;;;1.98;;
51636;SDS011;37713;53.254;6.460;2022-10-16T13:58:40;12.18;;;2.00;;
51636;SDS011;37713;53.254;6.460;2022-10-16T14:01:14;11.23;;;1.70;;
51636;SDS011;37713;53.254;6.460;2022-10-16T14:03:52;9.95;;;2.10;;
51636;SDS011;37713;53.254;6.460;2022-10-16T14:06:21;8.95;;;1.70;;
51636;SDS011;37713;53.254;6.460;2022-10-16T14:08:54;13.98;;;2.30;;
51636;SDS011;37713;53.254;6.460;2022-10-16T14:11:34;11.30;;;1.45;;
51636;SDS011;37713;53.254;6.460;2022-10-16T14:14:10;13.07;;;1.85;;
51636;SDS011;37713;53.254;6.460;2022-10-16T14:16:37;8.80;;;1.50;;
51636;SDS011;37713;53.254;6.460;2022-10-16T14:19:13;11.27;;;1.65;;
51636;SDS011;37713;53.254;6.460;2022-10-16T14:21:50;9.32;;;1.98;;
51636;SDS011;37713;53.254;6.460;2022-10-16T14:24:27;10.60;;;1.33;;
51636;SDS011;37713;53.254;6.460;2022-10-16T14:26:53;10.13;;;1.48;;
51636;SDS011;37713;53.254;6.460;2022-10-16T14:29:22;13.63;;;2.30;;
51636;SDS011;37713;53.254;6.460;2022-10-16T14:34:27;11.18;;;1.73;;
51636;SDS011;37713;53.254;6.460;2022-10-16T14:36:54;14.85;;;2.05;;
51636;SDS011;37713;53.254;6.460;2022-10-16T14:39:20;11.75;;;1.80;;
51636;SDS011;37713;53.254;6.460;2022-10-16T14:41:49;10.73;;;2.05;;
51636;SDS011;37713;53.254;6.460;2022-10-16T14:44:18;10.43;;;1.52;;
51636;SDS011;37713;53.254;6.460;2022-10-16T14:46:48;15.25;;;2.22;;
51636;SDS011;37713;53.254;6.460;2022-10-16T14:49:17;7.63;;;1.50;;
51636;SDS011;37713;53.254;6.460;2022-10-16T14:51:46;8.73;;;1.63;;
51636;SDS011;37713;53.254;6.460;2022-10-16T14:54:12;14.40;;;2.13;;
51636;SDS011;37713;53.254;6.460;2022-10-16T14:56:45;13.50;;;2.13;;
51636;SDS011;37713;53.254;6.460;2022-10-16T14:59:24;8.10;;;1.88;;
51636;SDS011;37713;53.254;6.460;2022-10-16T15:01:57;10.95;;;2.00;;
51636;SDS011;37713;53.254;6.460;2022-10-16T15:04:23;13.35;;;2.30;;
51636;SDS011;37713;53.254;6.460;2022-10-16T15:06:49;13.32;;;2.08;;
51636;SDS011;37713;53.254;6.460;2022-10-16T15:09:15;17.80;;;1.60;;
51636;SDS011;37713;53.254;6.460;2022-10-16T15:11:41;14.00;;;2.28;;
51636;SDS011;37713;53.254;6.460;2022-10-16T15:14:10;15.00;;;2.00;;
51636;SDS011;37713;53.254;6.460;2022-10-16T15:16:38;16.55;;;2.08;;
51636;SDS011;37713;53.254;6.460;2022-10-16T15:19:04;9.38;;;1.63;;
51636;SDS011;37713;53.254;6.460;2022-10-16T15:21:30;15.18;;;2.50;;
51636;SDS011;37713;53.254;6.460;2022-10-16T15:23:58;15.90;;;2.15;;
51636;SDS011;37713;53.254;6.460;2022-10-16T15:26:25;14.38;;;1.98;;
51636;SDS011;37713;53.254;6.460;2022-10-16T15:28:52;10.93;;;2.20;;
51636;SDS011;37713;53.254;6.460;2022-10-16T15:31:18;15.75;;;3.28;;
51636;SDS011;37713;53.254;6.460;2022-10-16T15:33:44;21.52;;;3.25;;
51636;SDS011;37713;53.254;6.460;2022-10-16T15:36:17;15.73;;;3.00;;
51636;SDS011;37713;53.254;6.460;2022-10-16T15:38:49;13.60;;;3.30;;
51636;SDS011;37713;53.254;6.460;2022-10-16T15:41:14;22.98;;;3.35;;
51636;SDS011;37713;53.254;6.460;2022-10-16T15:43:40;17.15;;;2.95;;
51636;SDS011;37713;53.254;6.460;2022-10-16T15:46:07;14.50;;;2.72;;
51636;SDS011;37713;53.254;6.460;2022-10-16T15:48:37;16.45;;;2.80;;
51636;SDS011;37713;53.254;6.460;2022-10-16T15:51:06;24.08;;;3.35;;
51636;SDS011;37713;53.254;6.460;2022-10-16T15:53:32;16.60;;;2.95;;
51636;SDS011;37713;53.254;6.460;2022-10-16T15:56:02;22.55;;;3.83;;
51636;SDS011;37713;53.254;6.460;2022-10-16T15:58:32;32.80;;;4.65;;
51636;SDS011;37713;53.254;6.460;2022-10-16T16:00:59;18.38;;;4.88;;
51636;SDS011;37713;53.254;6.460;2022-10-16T16:03:26;20.45;;;4.10;;
51636;SDS011;37713;53.254;6.460;2022-10-16T16:05:53;19.27;;;3.13;;
51636;SDS011;37713;53.254;6.460;2022-10-16T16:08:20;13.02;;;2.92;;
51636;SDS011;37713;53.254;6.460;2022-10-16T16:10:56;25.67;;;3.45;;
51636;SDS011;37713;53.254;6.460;2022-10-16T16:13:32;15.63;;;3.00;;
51636;SDS011;37713;53.254;6.460;2022-10-16T16:15:58;14.73;;;3.10;;
51636;SDS011;37713;53.254;6.460;2022-10-16T16:18:24;17.75;;;3.13;;
51636;SDS011;37713;53.254;6.460;2022-10-16T16:20:50;12.77;;;3.90;;
51636;SDS011;37713;53.254;6.460;2022-10-16T16:23:17;17.10;;;3.75;;
51636;SDS011;37713;53.254;6.460;2022-10-16T16:25:44;17.20;;;4.50;;
51636;SDS011;37713;53.254;6.460;2022-10-16T16:28:09;14.85;;;3.67;;
51636;SDS011;37713;53.254;6.460;2022-10-16T16:30:39;27.05;;;4.25;;
51636;SDS011;37713;53.254;6.460;2022-10-16T16:33:06;29.92;;;7.13;;
51636;SDS011;37713;53.254;6.460;2022-10-16T16:35:32;31.50;;;9.80;;
51636;SDS011;37713;53.254;6.460;2022-10-16T16:37:58;22.13;;;8.68;;
51636;SDS011;37713;53.254;6.460;2022-10-16T16:40:23;20.02;;;8.48;;
51636;SDS011;37713;53.254;6.460;2022-10-16T16:42:49;24.95;;;7.28;;
51636;SDS011;37713;53.254;6.460;2022-10-16T16:45:15;24.38;;;7.28;;
51636;SDS011;37713;53.254;6.460;2022-10-16T16:47:40;31.58;;;8.07;;
51636;SDS011;37713;53.254;6.460;2022-10-16T16:50:06;31.85;;;11.02;;
51636;SDS011;37713;53.254;6.460;2022-10-16T16:52:33;24.02;;;14.52;;
51636;SDS011;37713;53.254;6.460;2022-10-16T16:55:00;19.90;;;12.82;;
51636;SDS011;37713;53.254;6.460;2022-10-16T16:57:26;43.00;;;12.68;;
51636;SDS011;37713;53.254;6.460;2022-10-16T16:59:52;27.08;;;10.18;;
51636;SDS011;37713;53.254;6.460;2022-10-16T17:02:18;22.52;;;8.20;;
51636;SDS011;37713;53.254;6.460;2022-10-16T17:04:43;20.10;;;7.60;;
51636;SDS011;37713;53.254;6.460;2022-10-16T17:07:09;19.40;;;8.45;;
51636;SDS011;37713;53.254;6.460;2022-10-16T17:09:35;16.42;;;7.75;;
51636;SDS011;37713;53.254;6.460;2022-10-16T17:12:01;14.77;;;6.75;;
51636;SDS011;37713;53.254;6.460;2022-10-16T17:14:26;16.08;;;6.15;;
51636;SDS011;37713;53.254;6.460;2022-10-16T17:16:52;19.48;;;5.95;;
51636;SDS011;37713;53.254;6.460;2022-10-16T17:19:18;18.95;;;5.65;;
51636;SDS011;37713;53.254;6.460;2022-10-16T17:21:45;16.25;;;5.13;;
51636;SDS011;37713;53.254;6.460;2022-10-16T17:24:14;23.83;;;5.32;;
51636;SDS011;37713;53.254;6.460;2022-10-16T17:26:40;13.70;;;4.60;;